Time;durP1;ratioP1;P1;durP2;ratioP2;P2;SDS_P1;SDS_P2;PMS_P1;PMS_P2;Temp;Humidity;BMP_temperature;BMP_pressure;BME280_temperature;BME280_humidity;BME280_pressure;Samples;Min_cycle;Max_cycle;Signal;HPM_P1;HPM_P2
2022/05/15 00:02:23;;;;;;;26.73;8.93;;;;;;;;;;5096231;28;20477;-70
2022/05/15 00:04:49;;;;;;;19.73;10.43;;;;;;;;;;5075307;28;20044;-70
2022/05/15 00:07:16;;;;;;;23.88;9.20;;;;;;;;;;5090422;27;20040;-70
2022/05/15 00:09:42;;;;;;;19.35;8.05;;;;;;;;;;5085237;27;20058;-71
2022/05/15 00:12:08;;;;;;;24.45;8.77;;;;;;;;;;5085672;28;20043;-70
2022/05/15 00:14:35;;;;;;;22.42;8.73;;;;;;;;;;5084627;28;20052;-70
2022/05/15 00:17:01;;;;;;;20.90;9.88;;;;;;;;;;5090257;27;20143;-71
2022/05/15 00:19:27;;;;;;;17.67;9.07;;;;;;;;;;5086838;28;20185;-70
2022/05/15 00:21:54;;;;;;;23.65;9.02;;;;;;;;;;5084594;27;20036;-70
2022/05/15 00:24:20;;;;;;;17.73;8.25;;;;;;;;;;5068613;28;20445;-71
2022/05/15 00:26:46;;;;;;;21.40;8.75;;;;;;;;;;5092597;28;20055;-70
2022/05/15 00:29:12;;;;;;;22.52;8.65;;;;;;;;;;5086405;27;20040;-70
2022/05/15 00:31:38;;;;;;;14.80;8.07;;;;;;;;;;5084548;28;20123;-70
2022/05/15 00:34:04;;;;;;;16.20;7.80;;;;;;;;;;5095245;27;20118;-70
2022/05/15 00:36:31;;;;;;;30.15;8.45;;;;;;;;;;5092771;27;20046;-70
2022/05/15 00:39:00;;;;;;;18.30;8.10;;;;;;;;;;5087646;28;20396;-70
2022/05/15 00:41:26;;;;;;;14.50;8.18;;;;;;;;;;5090639;28;20070;-70
2022/05/15 00:43:54;;;;;;;20.40;7.45;;;;;;;;;;5097063;28;20043;-70
2022/05/15 00:46:26;;;;;;;18.23;7.22;;;;;;;;;;5090842;28;20052;-71
2022/05/15 00:48:53;;;;;;;20.60;7.60;;;;;;;;;;5089975;27;20035;-70
2022/05/15 00:51:24;;;;;;;24.60;9.05;;;;;;;;;;5087046;28;20051;-70
2022/05/15 00:53:52;;;;;;;19.35;8.27;;;;;;;;;;5099901;28;20044;-70
2022/05/15 00:56:19;;;;;;;16.60;8.88;;;;;;;;;;5092038;28;20032;-70
2022/05/15 00:58:48;;;;;;;19.55;9.75;;;;;;;;;;5084987;28;20046;-70
2022/05/15 01:01:16;;;;;;;19.08;8.98;;;;;;;;;;5099109;28;20036;-71
2022/05/15 01:03:43;;;;;;;25.08;9.63;;;;;;;;;;5091585;28;20503;-70
2022/05/15 01:06:10;;;;;;;17.73;8.45;;;;;;;;;;5088043;28;20480;-70
2022/05/15 01:08:36;;;;;;;24.25;9.32;;;;;;;;;;5086899;28;20036;-70
2022/05/15 01:11:10;;;;;;;15.13;7.65;;;;;;;;;;5083474;28;20046;-70
2022/05/15 01:13:37;;;;;;;16.27;8.25;;;;;;;;;;5084679;28;20040;-70
2022/05/15 01:16:05;;;;;;;20.65;8.35;;;;;;;;;;5088721;28;20042;-71
2022/05/15 01:18:34;;;;;;;20.38;9.05;;;;;;;;;;5085771;28;20448;-70
2022/05/15 01:21:02;;;;;;;13.43;8.27;;;;;;;;;;5098821;28;20051;-70
2022/05/15 01:23:31;;;;;;;24.08;9.80;;;;;;;;;;5088537;28;20036;-70
2022/05/15 01:25:58;;;;;;;20.67;7.90;;;;;;;;;;5087980;28;20072;-70
2022/05/15 01:28:25;;;;;;;27.60;10.15;;;;;;;;;;5084423;28;20529;-70
2022/05/15 01:30:53;;;;;;;22.45;10.57;;;;;;;;;;5083844;28;20126;-70
2022/05/15 01:33:20;;;;;;;21.35;10.00;;;;;;;;;;5085161;28;20313;-70
2022/05/15 01:35:46;;;;;;;22.65;8.50;;;;;;;;;;5082143;28;20136;-70
2022/05/15 01:38:13;;;;;;;17.85;9.20;;;;;;;;;;5089364;28;20068;-70
2022/05/15 01:40:39;;;;;;;18.13;7.85;;;;;;;;;;5091315;28;20182;-70
2022/05/15 01:43:06;;;;;;;17.95;10.45;;;;;;;;;;5088637;28;20710;-70
2022/05/15 01:45:32;;;;;;;17.90;8.45;;;;;;;;;;5090047;28;20043;-70
2022/05/15 01:47:59;;;;;;;16.38;8.18;;;;;;;;;;5085553;28;20043;-70
2022/05/15 01:50:25;;;;;;;21.52;8.07;;;;;;;;;;5084239;28;20185;-70
2022/05/15 01:52:51;;;;;;;17.52;10.02;;;;;;;;;;5090828;28;20056;-70
2022/05/15 01:55:17;;;;;;;20.10;8.60;;;;;;;;;;5093564;28;20047;-70
2022/05/15 01:57:43;;;;;;;19.52;8.07;;;;;;;;;;5091956;28;20040;-70
2022/05/15 02:00:12;;;;;;;19.75;8.35;;;;;;;;;;5088726;28;21106;-70
2022/05/15 02:02:40;;;;;;;22.05;7.82;;;;;;;;;;5075454;28;20379;-70
2022/05/15 02:05:07;;;;;;;18.25;8.65;;;;;;;;;;5084491;28;20043;-70
2022/05/15 02:07:33;;;;;;;24.42;9.30;;;;;;;;;;5087051;28;20097;-70
2022/05/15 02:09:59;;;;;;;23.90;7.90;;;;;;;;;;5088292;28;20043;-71
2022/05/15 02:12:26;;;;;;;14.32;8.35;;;;;;;;;;5085486;28;20497;-70
2022/05/15 02:14:52;;;;;;;15.77;7.45;;;;;;;;;;5082968;28;20048;-70
2022/05/15 02:17:18;;;;;;;17.88;8.88;;;;;;;;;;5089098;28;20043;-70
2022/05/15 02:19:44;;;;;;;16.45;8.70;;;;;;;;;;5087917;27;20079;-70
2022/05/15 02:22:12;;;;;;;21.58;9.05;;;;;;;;;;5100270;27;20107;-70
2022/05/15 02:24:38;;;;;;;23.45;9.00;;;;;;;;;;5095011;28;20530;-70
2022/05/15 02:27:05;;;;;;;21.80;8.40;;;;;;;;;;5090855;27;20044;-70
2022/05/15 02:29:31;;;;;;;21.15;9.75;;;;;;;;;;5088879;28;20044;-70
2022/05/15 02:31:57;;;;;;;19.17;7.38;;;;;;;;;;5088049;27;20075;-70
2022/05/15 02:34:23;;;;;;;21.45;7.55;;;;;;;;;;5088518;27;20543;-70
2022/05/15 02:36:49;;;;;;;20.02;8.55;;;;;;;;;;5090762;27;20079;-70
2022/05/15 02:39:15;;;;;;;20.23;8.45;;;;;;;;;;5087691;27;20164;-69
2022/05/15 02:41:41;;;;;;;15.07;8.00;;;;;;;;;;5087440;28;20456;-70
2022/05/15 02:44:08;;;;;;;22.58;10.57;;;;;;;;;;5087484;28;20067;-70
2022/05/15 02:46:34;;;;;;;20.10;8.40;;;;;;;;;;5089074;27;20216;-70
2022/05/15 02:51:46;;;;;;;21.55;8.15;;;;;;;;;;5091198;28;20101;-70
2022/05/15 02:54:12;;;;;;;19.38;7.90;;;;;;;;;;5095821;27;20557;-70
2022/05/15 02:56:39;;;;;;;20.83;8.48;;;;;;;;;;5088914;28;20039;-70
2022/05/15 02:59:05;;;;;;;17.13;8.52;;;;;;;;;;5086393;27;20048;-70
2022/05/15 03:01:33;;;;;;;15.30;7.82;;;;;;;;;;5091430;27;20055;-70
2022/05/15 03:04:00;;;;;;;20.85;7.97;;;;;;;;;;5096805;28;20050;-70
2022/05/15 03:06:26;;;;;;;17.48;8.25;;;;;;;;;;5099503;27;20108;-70
2022/05/15 03:08:52;;;;;;;19.75;7.55;;;;;;;;;;5088315;28;20048;-70
2022/05/15 03:11:18;;;;;;;20.63;8.65;;;7.70;99.90;;;;;;5085670;27;20543;-70
2022/05/15 03:13:45;;;;;;;18.63;8.95;;;;;;;;;;5092843;27;20595;-70
2022/05/15 03:16:12;;;;;;;18.40;9.05;;;;;;;;;;5087412;27;20052;-70
2022/05/15 03:18:43;;;;;;;19.58;8.27;;;;;;;;;;5085188;28;20048;-70
2022/05/15 03:21:10;;;;;;;18.23;8.45;;;;;;;;;;5099500;28;20191;-70
2022/05/15 03:23:37;;;;;;;15.63;8.90;;;;;;;;;;5089385;28;20028;-70
2022/05/15 03:26:04;;;;;;;18.55;9.18;;;;;;;;;;5085699;27;20619;-70
2022/05/15 03:28:30;;;;;;;17.77;9.77;;;;;;;;;;5094520;28;20516;-70
2022/05/15 03:30:56;;;;;;;21.23;9.13;;;;;;;;;;5098479;28;20036;-70
2022/05/15 03:33:22;;;;;;;23.25;8.80;;;;;;;;;;5088727;27;20051;-70
2022/05/15 03:35:49;;;;;;;17.52;7.57;;;;;;;;;;5091259;28;20058;-70
2022/05/15 03:38:15;;;;;;;23.23;9.90;;;;;;;;;;5094215;27;20048;-70
2022/05/15 03:40:43;;;;;;;16.90;9.05;;;;;;;;;;5086711;27;20572;-70
2022/05/15 03:43:10;;;;;;;15.40;8.60;;;;;;;;;;5090814;28;20051;-69
2022/05/15 03:45:36;;;;;;;19.65;7.70;;;;;;;;;;5099585;27;20040;-70
2022/05/15 03:48:03;;;;;;;22.42;8.82;;;;;;;;;;5086932;27;20044;-70
2022/05/15 03:50:29;;;;;;;17.40;8.35;;;;;;;;;;5084711;28;20051;-70
2022/05/15 03:52:56;;;;;;;15.73;7.95;;;;;;;;;;5085311;27;20055;-70
2022/05/15 03:55:22;;;;;;;21.20;8.70;;;;;;;;;;5084591;28;20059;-70
2022/05/15 03:57:55;;;;;;;23.23;9.32;;;;;;;;;;5086410;28;20035;-70
2022/05/15 04:00:22;;;;;;;25.48;9.32;;;;;;;;;;5090929;27;20165;-70
2022/05/15 04:02:48;;;;;;;18.67;7.57;;;;;;;;;;5088163;28;20044;-69
2022/05/15 04:05:14;;;;;;;18.60;8.15;;;;;;;;;;5092479;27;20035;-70
2022/05/15 04:07:44;;;;;;;14.52;8.27;;;;;;;;;;5094760;27;20044;-69
2022/05/15 04:10:11;;;;;;;17.40;9.25;;;;;;;;;;5089178;28;20111;-70
2022/05/15 04:12:37;;;;;;;27.05;9.52;;;;;;;;;;5085953;28;20032;-70
2022/05/15 04:15:06;;;;;;;27.45;9.07;;;;;;;;;;5100660;28;20089;-70
2022/05/15 04:17:34;;;;;;;24.90;9.98;;;;;;;;;;5052939;28;20048;-70
2022/05/15 04:20:06;;;;;;;15.43;8.20;;;;;;;;;;5086033;28;20131;-69
2022/05/15 04:22:32;;;;;;;23.20;8.50;;;;;;;;;;5080327;28;20043;-70
2022/05/15 04:24:59;;;;;;;27.63;8.80;;;;;;;;;;5084222;28;20082;-70
2022/05/15 04:27:25;;;;;;;25.38;10.80;;;;;;;;;;5084667;27;20043;-70
2022/05/15 04:29:52;;;;;;;20.35;8.82;;;;;;;;;;5089034;28;20048;-70
2022/05/15 04:32:18;;;;;;;21.30;9.88;;;;;;;;;;5090900;27;20040;-70
2022/05/15 04:34:44;;;;;;;16.90;8.00;;;;;;;;;;5101467;28;20052;-70
2022/05/15 04:37:10;;;;;;;22.67;9.63;;;;;;;;;;5084379;28;20085;-70
2022/05/15 04:39:37;;;;;;;20.40;9.98;;;;;;;;;;5087237;28;20052;-70
2022/05/15 04:42:03;;;;;;;21.52;8.55;;;;;;;;;;5092448;27;20050;-70
2022/05/15 04:44:29;;;;;;;21.70;9.07;;;;;;;;;;5084643;28;20377;-70
2022/05/15 04:46:55;;;;;;;24.50;8.90;;;;;;;;;;5088835;28;20482;-70
2022/05/15 04:49:22;;;;;;;22.52;9.30;;;;;;;;;;5087131;28;20572;-69
2022/05/15 04:51:48;;;;;;;35.33;9.75;;;;;;;;;;5091309;28;20132;-69
2022/05/15 04:54:14;;;;;;;23.80;8.38;;;;;;;;;;5069944;28;20048;-70
2022/05/15 04:56:40;;;;;;;27.98;10.85;;;;;;;;;;5086740;28;20073;-69
2022/05/15 04:59:06;;;;;;;23.40;9.00;;;;;;;;;;5093519;28;20125;-70
2022/05/15 05:01:33;;;;;;;18.05;8.48;;;;;;;;;;5088930;28;20477;-69
2022/05/15 05:03:59;;;;;;;20.33;9.00;;;;;;;;;;5083311;28;20131;-69
2022/05/15 05:06:26;;;;;;;19.50;8.32;;;;;;;;;;5091682;28;20217;-70
2022/05/15 05:08:52;;;;;;;18.52;8.30;;;;;;;;;;5089559;28;20036;-70
2022/05/15 05:11:18;;;;;;;23.92;9.05;;;;;;;;;;5091081;28;20035;-69
2022/05/15 05:13:45;;;;;;;17.58;7.55;;;;;;;;;;5086117;28;20035;-70
2022/05/15 05:16:11;;;;;;;19.15;8.13;;;;;;;;;;5091311;28;20036;-70
2022/05/15 05:18:37;;;;;;;24.60;8.60;;;;;;;;;;5094762;28;20047;-70
2022/05/15 05:21:04;;;;;;;26.27;7.72;;;;;;;;;;5089457;28;20040;-69
2022/05/15 05:23:30;;;;;;;17.65;8.90;;;;;;;;;;5089627;28;20116;-69
2022/05/15 05:25:56;;;;;;;15.50;7.68;;;;;;;;;;5102269;28;20089;-69
2022/05/15 05:28:22;;;;;;;20.08;7.85;;;;;;;;;;5084286;28;20036;-71
2022/05/15 05:30:49;;;;;;;20.38;8.05;;;;;;;;;;5070115;28;20043;-69
2022/05/15 05:33:15;;;;;;;21.92;8.95;;;;;;;;;;5098136;28;20074;-70
2022/05/15 05:35:42;;;;;;;25.88;7.53;;;;;;;;;;5095456;28;20059;-69
2022/05/15 05:38:09;;;;;;;18.73;7.28;;;;;;;;;;5088536;28;20493;-70
2022/05/15 05:40:35;;;;;;;21.00;8.88;;;;;;;;;;5087908;28;20068;-70
2022/05/15 05:43:01;;;;;;;18.08;7.90;;;;;;;;;;5068461;28;20116;-69
2022/05/15 05:45:28;;;;;;;22.83;8.43;;;;;;;;;;5085524;28;20036;-70
2022/05/15 05:47:55;;;;;;;18.95;9.77;;;;;;;;;;5084908;28;20404;-70
2022/05/15 05:50:22;;;;;;;19.85;9.15;;;;;;;;;;5081020;28;20205;-70
2022/05/15 05:52:49;;;;;;;17.50;7.50;;;;;;;;;;5092210;27;20208;-71
2022/05/15 05:55:16;;;;;;;16.52;8.73;;;;;;;;;;5100771;27;20530;-70
2022/05/15 05:57:43;;;;;;;20.25;7.45;;;;;;;;;;5088480;27;20508;-70
2022/05/15 06:00:11;;;;;;;17.48;7.95;;;;;;;;;;5095332;27;20115;-70
2022/05/15 06:02:37;;;;;;;22.05;9.07;;;;;;;;;;5103908;28;20043;-70
2022/05/15 06:05:05;;;;;;;26.15;9.98;;;;;;;;;;5097727;27;20031;-70
2022/05/15 06:07:33;;;;;;;20.52;9.05;;;;;;;;;;5087841;28;20070;-70
2022/05/15 06:10:00;;;;;;;22.58;8.57;;;;;;;;;;5102111;28;20129;-70
2022/05/15 06:12:26;;;;;;;25.27;8.77;;;;;;;;;;5098139;28;20190;-70
2022/05/15 06:14:53;;;;;;;17.70;7.63;;;;;;;;;;5079870;28;20047;-71
2022/05/15 06:17:23;;;;;;;18.42;7.50;;;;;;;;;;5096758;27;20044;-71
2022/05/15 06:19:49;;;;;;;26.58;8.68;;;;;;;;;;5089227;28;20164;-70
2022/05/15 06:22:16;;;;;;;22.38;8.10;;;;;;;;;;5086698;28;20112;-70
2022/05/15 06:24:42;;;;;;;20.42;7.03;;;;;;;;;;5096990;27;20569;-70
2022/05/15 06:27:09;;;;;;;22.98;7.80;;;;;;;;;;5094053;27;20096;-70
2022/05/15 06:29:36;;;;;;;20.40;8.27;;;;;;;;;;5083054;28;20047;-71
2022/05/15 06:32:02;;;;;;;19.20;8.77;;;;;;;;;;5085633;28;20120;-70
2022/05/15 06:34:28;;;;;;;18.80;7.82;;;;;;;;;;5089016;28;20044;-71
2022/05/15 06:36:54;;;;;;;21.63;7.97;;;;;;;;;;5092520;27;20161;-71
2022/05/15 06:39:21;;;;;;;17.33;8.57;;;;;;;;;;5086129;27;20050;-71
2022/05/15 06:41:50;;;;;;;21.20;8.25;;;;;;;;;;5087795;27;20072;-71
2022/05/15 06:44:19;;;;;;;16.35;8.13;;;;;;;;;;5095836;27;20048;-71
2022/05/15 06:46:48;;;;;;;22.85;7.43;;;;;;;;;;5091731;27;20063;-71
2022/05/15 06:49:14;;;;;;;27.08;9.82;;;;;;;;;;5091613;28;20119;-71
2022/05/15 06:51:41;;;;;;;19.13;8.15;;;;;;;;;;5088091;27;20113;-70
2022/05/15 06:54:08;;;;;;;18.90;7.93;;;;;;;;;;5092740;28;20297;-70
2022/05/15 06:59:19;;;;;;;23.42;8.30;;;;;;;;;;5097394;28;20055;-71
2022/05/15 07:01:45;;;;;;;20.50;8.10;;;;;;;;;;5086552;27;20086;-70
2022/05/15 07:04:11;;;;;;;22.02;7.60;;;;;;;;;;5084980;28;20426;-71
2022/05/15 07:06:37;;;;;;;21.80;7.00;;;;;;;;;;5099921;27;20684;-71
2022/05/15 07:09:03;;;;;;;19.00;7.57;;;;;;;;;;5084965;28;20264;-70
2022/05/15 07:11:29;;;;;;;16.63;8.50;;;;;;;;;;5086821;28;20568;-71
2022/05/15 07:13:56;;;;;;;20.55;7.57;;;;;;;;;;5089439;28;20043;-71
2022/05/15 07:16:22;;;;;;;19.67;7.78;;;;;;;;;;5088962;27;20043;-71
2022/05/15 07:18:48;;;;;;;15.13;6.50;;;;;;;;;;5086473;28;20402;-71
2022/05/15 07:21:14;;;;;;;22.30;7.32;;;;;;;;;;5085518;28;20036;-71
2022/05/15 07:23:41;;;;;;;18.58;7.18;;;;;;;;;;5089597;27;20043;-71
2022/05/15 07:26:07;;;;;;;16.77;7.28;;;;;;;;;;5092702;27;20081;-71
2022/05/15 07:28:34;;;;;;;21.25;8.23;;;;;;;;;;5089309;27;20043;-71
2022/05/15 07:31:00;;;;;;;21.45;8.05;;;;;;;;;;5087252;28;20660;-71
2022/05/15 07:33:27;;;;;;;27.13;7.75;;;;;;;;;;5086848;28;20075;-71
2022/05/15 07:35:55;;;;;;;16.63;7.53;;;;;;;;;;5085817;27;20048;-70
2022/05/15 07:38:21;;;;;;;22.60;6.63;;;;;;;;;;5086551;27;20086;-71
2022/05/15 07:40:47;;;;;;;16.65;6.90;;;;;;;;;;5094695;28;20555;-71
2022/05/15 07:43:14;;;;;;;15.77;7.40;;;;;;;;;;5092667;28;20126;-71
2022/05/15 07:45:40;;;;;;;21.08;7.10;;;;;;;;;;5089352;27;20086;-71
2022/05/15 07:48:07;;;;;;;26.75;6.75;;;;;;;;;;5093817;27;20178;-71
2022/05/15 07:50:33;;;;;;;21.75;6.95;;;;;;;;;;5089955;27;20105;-71
2022/05/15 07:53:00;;;;;;;11.77;5.75;;;;;;;;;;5092283;28;20056;-71
2022/05/15 07:55:26;;;;;;;21.23;8.45;;;;;;;;;;5091263;28;20224;-71
2022/05/15 07:57:53;;;;;;;16.88;7.22;;;;;;;;;;5096963;27;20105;-71
2022/05/15 08:00:19;;;;;;;35.55;8.25;;;;;;;;;;5091571;28;20046;-71
2022/05/15 08:02:46;;;;;;;18.63;6.07;;;;;;;;;;5080936;28;20032;-71
2022/05/15 08:08:00;;;;;;;20.65;6.43;;;;;;;;;;5096615;28;20047;-71
2022/05/15 08:10:27;;;;;;;15.85;7.30;;;;;;;;;;5097000;28;20049;-71
2022/05/15 08:12:53;;;;;;;16.45;7.30;;;;;;;;;;5096696;28;20050;-70
2022/05/15 08:15:19;;;;;;;10.65;5.75;;;;;;;;;;5095013;28;20579;-71
2022/05/15 08:17:45;;;;;;;20.05;6.70;;;;;;;;;;5093206;27;20131;-71
2022/05/15 08:25:42;;;;;;;13.68;5.93;;;;;;;;;;5095970;28;20538;-71
2022/05/15 08:28:08;;;;;;;13.90;5.55;;;;;;;;;;5094844;27;20039;-71
2022/05/15 08:30:35;;;;;;;15.75;5.95;;;;;;;;;;5095561;28;20501;-71
2022/05/15 08:33:01;;;;;;;20.05;6.30;;;;;;;;;;5085920;28;20044;-71
2022/05/15 08:35:29;;;;;;;17.60;6.30;;;;;;;;;;5085103;27;20055;-71
2022/05/15 08:37:55;;;;;;;18.25;5.25;;;;;;;;;;5091489;28;20126;-71
2022/05/15 08:40:24;;;;;;;14.27;6.05;;;;;;;;;;5085386;28;20501;-71
2022/05/15 08:42:54;;;;;;;19.83;6.13;;;;;;;;;;5086181;28;20537;-71
2022/05/15 08:45:23;;;;;;;20.02;6.63;;;;;;;;;;5089087;27;20058;-71
2022/05/15 08:47:55;;;;;;;12.88;5.35;;;;;;;;;;5081538;28;20051;-71
2022/05/15 08:50:27;;;;;;;14.68;6.18;;;;;;;;;;5095944;28;20252;-71
2022/05/15 08:53:00;;;;;;;16.48;5.43;;;;;;;;;;5085940;28;20044;-71
2022/05/15 08:55:26;;;;;;;15.02;5.82;;;;;;;;;;5085528;27;20489;-71
2022/05/15 08:57:57;;;;;;;16.02;5.70;;;;;;;;;;5088215;28;20071;-71
2022/05/15 09:00:30;;;;;;;19.58;5.60;;;;;;;;;;5084608;28;20505;-71
2022/05/15 09:03:00;;;;;;;14.70;5.35;;;;;;;;;;5085119;28;20070;-71
2022/05/15 09:05:29;;;;;;;14.77;5.63;;;;;;;;;;5097627;28;20697;-70
2022/05/15 09:08:01;;;;;;;14.35;4.88;;;;;;;;;;5084010;28;20374;-73
2022/05/15 09:10:33;;;;;;;15.52;5.63;;;;;;;;;;5084974;28;20130;-73
2022/05/15 09:13:02;;;;;;;14.10;4.90;;;;;;;;;;5084490;28;20036;-72
2022/05/15 09:15:31;;;;;;;14.55;5.38;;;;;;;;;;5091866;28;20047;-73
2022/05/15 09:18:03;;;;;;;13.45;5.47;;;;;;;;;;5088769;28;20036;-73
2022/05/15 09:20:35;;;;;;;12.38;4.85;;;;;;;;;;5083572;28;20054;-73
2022/05/15 09:23:04;;;;;;;12.43;5.53;;;;;;;;;;5095766;28;20036;-73
2022/05/15 09:25:33;;;;;;;22.90;6.30;;;;;;;;;;5091058;28;20445;-73
2022/05/15 09:28:09;;;;;;;13.18;4.95;;;;;;;;;;5102269;27;20048;-74
2022/05/15 09:30:37;;;;;;;12.55;4.80;;;;;;;;;;5088616;27;20048;-74
2022/05/15 09:33:04;;;;;;;11.82;5.30;;;;;;;;;;5097814;27;20375;-73
2022/05/15 09:35:43;;;;;;;14.18;4.97;;;;;;;;;;5092568;28;20119;-73
2022/05/15 09:38:28;;;;;;;13.23;5.40;;;;;;;;;;5096405;27;20126;-73
2022/05/15 09:43:55;;;;;;;10.20;4.90;;;;;;;;;;5090096;27;20092;-73
2022/05/15 09:46:26;;;;;;;10.77;6.00;;;;;;;;;;5086200;28;20489;-74
2022/05/15 09:48:52;;;;;;;19.20;5.60;;;;;;;;;;5096578;27;20040;-74
2022/05/15 09:51:35;;;;;;;13.27;5.95;;;;;;;;;;5087971;27;20514;-74
2022/05/15 09:54:01;;;;;;;11.07;4.75;;;;;;;;;;5088542;27;20044;-74
2022/05/15 09:56:30;;;;;;;14.00;5.25;;;;;;;;;;5091019;27;20137;-73
2022/05/15 09:59:05;;;;;;;13.77;5.20;;;;;;;;;;5092107;28;20040;-74
2022/05/15 10:01:36;;;;;;;19.80;5.63;;;;;;;;;;5088812;27;20043;-74
2022/05/15 10:04:05;;;;;;;16.92;5.85;;;;;;;;;;5088366;28;20230;-74
2022/05/15 10:06:37;;;;;;;11.82;5.05;;;;;;;;;;5095027;28;20451;-74
2022/05/15 10:09:06;;;;;;;11.52;5.75;;;;;;;;;;5092169;27;20085;-74
2022/05/15 10:11:35;;;;;;;17.67;5.68;;;;;;;;;;5088503;27;20461;-74
2022/05/15 10:14:01;;;;;;;15.05;5.50;;;;;;;;;;5099056;27;20051;-75
2022/05/15 10:16:28;;;;;;;13.23;5.72;;;;;;;;;;5093222;27;20044;-75
2022/05/15 10:18:58;;;;;;;15.65;5.43;;;;;;;;;;5090727;28;20501;-74
2022/05/15 10:21:25;;;;;;;13.18;5.47;;;;;;;;;;5089711;27;20050;-74
2022/05/15 10:23:55;;;;;;;14.75;5.13;;;;;;;;;;5087730;27;20075;-75
2022/05/15 10:26:24;;;;;;;22.13;6.55;;;;;;;;;;5101820;28;20040;-75
2022/05/15 10:28:54;;;;;;;13.50;5.95;;;;;;;;;;5087756;27;20082;-74
2022/05/15 10:31:29;;;;;;;14.15;6.03;;;;;;;;;;5087699;28;20040;-75
2022/05/15 10:33:57;;;;;;;13.38;6.15;;;;;;;;;;5097545;27;20047;-75
2022/05/15 10:36:24;;;;;;;11.90;5.00;;;;;;;;;;5086314;27;20161;-76
2022/05/15 10:38:56;;;;;;;22.15;6.57;;;;;;;;;;5103633;28;20245;-75
2022/05/15 10:41:23;;;;;;;;;;;;;;;;;;5086529;28;20040;-74
2022/05/15 10:44:18;;;;;;;12.70;5.22;;;;;;;;;;5086280;28;19922;-74
2022/05/15 10:46:57;;;;;;;13.73;5.15;;;;;;;;;;5045399;28;20060;-74
2022/05/15 10:49:42;;;;;;;15.60;6.18;;;;;;;;;;5087255;28;20485;-75
2022/05/15 10:52:21;;;;;;;12.65;5.63;;;;;;;;;;5085913;27;20051;-75
2022/05/15 10:57:45;;;;;;;11.90;4.75;;;;;;;;;;5089850;28;20054;-75
2022/05/15 11:00:22;;;;;;;22.80;5.45;;;;;;;;;;5091451;27;20461;-75
2022/05/15 11:02:59;;;;;;;14.05;5.65;;;;;;;;;;5088648;28;20425;-74
2022/05/15 11:05:28;;;;;;;12.77;5.15;;;;;;;;;;5096065;28;20090;-75
2022/05/15 11:08:12;;;;;;;17.98;5.65;;;;;;;;;;5089634;28;20128;-75
2022/05/15 11:10:49;;;;;;;10.68;5.85;;;;;;;;;;5087229;27;20445;-74
2022/05/15 11:13:34;;;;;;;11.45;5.32;;;;;;;;;;5088211;27;20040;-75
2022/05/15 11:16:00;;;;;;;12.13;5.20;;;;;;;;;;5089090;27;20046;-75
2022/05/15 11:18:29;;;;;;;13.90;5.50;;;;;;;;;;5085622;28;20048;-75
2022/05/15 11:21:05;;;;;;;12.52;6.30;;;;;;;;;;5096805;28;20051;-75
2022/05/15 11:23:36;;;;;;;15.30;5.78;;;;;;;;;;5102612;28;20044;-75
2022/05/15 11:26:02;;;;;;;12.98;5.00;;;;;;;;;;5088619;27;20047;-75
2022/05/15 11:28:31;;;;;;;16.63;5.28;;;;;;;;;;5087283;27;20044;-74
2022/05/15 11:31:03;;;;;;;18.75;5.72;;;;;;;;;;5096332;28;20050;-74
2022/05/15 11:33:34;;;;;;;15.80;5.28;;;;;;;;;;5091378;28;20581;-74
2022/05/15 11:36:12;;;;;;;14.70;4.88;;;;;;;;;;5086846;28;20047;-74
2022/05/15 11:38:47;;;;;;;14.25;5.82;;;;;;;;;;5085598;27;20043;-74
2022/05/15 11:41:32;;;;;;;10.98;4.80;;;;;;;;;;5086601;28;20040;-74
2022/05/15 11:44:00;;;;;;;10.93;5.18;;;;;;;;;;5087331;28;20040;-75
2022/05/15 11:46:44;;;;;;;18.13;6.30;;;;;;;;;;5097224;28;20039;-75
2022/05/15 11:49:14;;;;;;;9.25;4.60;;;;;;;;;;5091871;27;20101;-75
2022/05/15 11:51:40;;;;;;;15.65;4.72;;;;;;;;;;5085525;27;20063;-75
2022/05/15 11:54:10;;;;;;;19.35;5.55;;;;;;;;;;5086923;27;20127;-74
2022/05/15 11:56:39;;;;;;;22.52;6.28;;;;;;;;;;5093903;28;20149;-75
2022/05/15 11:59:05;;;;;;;16.65;5.53;;;;;;;;;;5085419;28;20070;-75
2022/05/15 12:01:35;;;;;;;14.20;5.18;;;;;;;;;;5086714;27;20047;-74
2022/05/15 12:04:03;;;;;;;15.82;5.13;;;;;;;;;;5085928;28;20329;-74
2022/05/15 12:06:31;;;;;;;16.25;4.40;;;;;;;;;;5093218;28;20035;-74
2022/05/15 12:09:16;;;;;;;15.50;4.72;;;;;;;;;;5090129;28;20044;-74
2022/05/15 12:11:43;;;;;;;14.48;4.82;;;;;;;;;;5086079;28;20052;-74
2022/05/15 12:14:29;;;;;;;12.80;3.88;;;;;;;;;;5085740;28;20394;-75
2022/05/15 12:16:55;;;;;;;8.50;4.05;;;;;;;;;;5089573;27;20040;-75
2022/05/15 12:19:24;;;;;;;12.27;5.07;;;;;;;;;;5084460;27;20040;-75
2022/05/15 12:21:54;;;;;;;12.00;4.75;;;;;;;;;;5096552;28;20036;-74
2022/05/15 12:24:27;;;;;;;15.77;5.45;;;;;;;;;;5092706;28;20040;-74
2022/05/15 12:27:11;;;;;;;11.88;4.55;;;;;;;;;;5073273;28;20043;-74
2022/05/15 12:29:41;;;;;;;11.10;4.78;;;;;;;;;;5099892;28;20047;-74
2022/05/15 12:32:07;;;;;;;10.65;3.92;;;;;;;;;;5092147;28;20044;-75
2022/05/15 12:34:36;;;;;;;10.80;4.80;;;;;;;;;;5085205;27;20035;-75
2022/05/15 12:37:05;;;;;;;9.05;4.60;;;;;;;;;;5097628;28;20044;-75
2022/05/15 12:39:34;;;;;;;12.85;4.53;;;;;;;;;;5089262;28;20520;-75
2022/05/15 12:42:02;;;;;;;10.10;4.53;;;;;;;;;;5093225;27;20051;-75
2022/05/15 12:44:32;;;;;;;10.73;4.80;;;;;;;;;;5089496;28;20122;-75
2022/05/15 12:47:00;;;;;;;9.48;4.10;;;;;;;;;;5089828;28;20526;-75
2022/05/15 12:49:36;;;;;;;11.20;4.63;;;;;;;;;;5101086;27;20431;-75
2022/05/15 12:52:27;;;;;;;12.05;4.13;;;;;;;;;;5089925;28;20561;-75
2022/05/15 12:55:05;;;;;;;14.13;5.40;;;;;;;;;;5085853;27;20059;-75
2022/05/15 12:57:47;;;;;;;9.57;3.97;;;;;;;;;;5094330;28;20563;-75
2022/05/15 13:00:15;;;;;;;10.40;4.65;;;;;;;;;;5088213;28;20655;-75
2022/05/15 13:02:41;;;;;;;9.35;3.65;;;;;;;;;;5084837;28;20040;-75
2022/05/15 13:05:23;;;;;;;12.20;5.25;;;;;;;;;;5083616;28;20169;-76
2022/05/15 13:07:54;;;;;;;11.82;4.47;;;;;;;;;;5089180;28;20162;-75
2022/05/15 13:10:21;;;;;;;9.57;5.15;;;;;;;;;;5086613;28;20046;-75
2022/05/15 13:12:58;;;;;;;11.85;5.22;;;;;;;;;;5084866;28;20061;-75
2022/05/15 13:15:26;;;;;;;11.57;4.22;;;;;;;;;;5083519;28;20481;-75
2022/05/15 13:17:53;;;;;;;16.63;4.68;;;;;;;;;;5084957;28;20052;-75
2022/05/15 13:20:22;;;;;;;10.07;3.97;;;;;;;;;;5084655;28;20055;-76
2022/05/15 13:22:49;;;;;;;8.40;3.42;;;;;;;;;;5095213;28;20493;-75
2022/05/15 13:25:22;;;;;;;19.23;4.53;;;;;;;;;;5084532;28;20440;-75
2022/05/15 13:27:49;;;;;;;11.35;4.13;;;;;;;;;;5088717;28;20051;-75
2022/05/15 13:30:18;;;;;;;10.10;3.70;;;;;;;;;;5084715;28;20122;-75
2022/05/15 13:32:45;;;;;;;10.68;4.40;;;;;;;;;;5088046;28;20044;-75
2022/05/15 13:35:13;;;;;;;11.55;4.00;;;;;;;;;;5084915;28;20075;-74
2022/05/15 13:37:40;;;;;;;15.70;3.45;;;;;;;;;;5080698;28;20057;-75
2022/05/15 13:45:50;;;;;;;8.65;4.40;;;;;;;;;;5085589;28;20083;-75
2022/05/15 13:48:17;;;;;;;10.57;3.88;;;;;;;;;;5095248;28;20139;-75
2022/05/15 13:50:48;;;;;;;15.95;4.57;;;;;;;;;;5083304;28;20060;-75
2022/05/15 13:53:18;;;;;;;13.80;5.60;;;;;;;;;;5088807;28;20808;-75
2022/05/15 13:55:45;;;;;;;13.98;4.43;;;;;;;;;;5082910;28;20072;-75
2022/05/15 13:58:11;;;;;;;10.60;4.45;;;;;;;;;;5082606;28;20040;-75
2022/05/15 14:00:39;;;;;;;8.20;4.03;;;;;;;;;;5082839;28;20044;-74
2022/05/15 14:03:07;;;;;;;15.82;4.18;;;;;;;;;;5084938;28;20447;-74
2022/05/15 14:05:37;;;;;;;10.45;4.00;;;;;;;;;;5084705;28;20051;-74
2022/05/15 14:08:12;;;;;;;7.85;3.92;;;;;;;;;;5082101;28;20040;-75
2022/05/15 14:10:38;;;;;;;8.57;3.40;;;;;;;;;;5092136;28;20501;-74
2022/05/15 14:13:05;;;;;;;11.52;3.80;;;;;;;;;;5088228;27;20044;-75
2022/05/15 14:15:31;;;;;;;8.30;3.58;;;;;;;;;;5089191;27;20051;-74
2022/05/15 14:17:58;;;;;;;12.20;3.45;;;;;;;;;;5089925;28;20043;-75
2022/05/15 14:20:26;;;;;;;10.88;4.13;;;;;;;;;;5097654;28;20097;-75
2022/05/15 14:22:53;;;;;;;7.90;3.40;;;;;;;;;;5091026;27;20124;-74
2022/05/15 14:25:20;;;;;;;10.90;4.60;;;;;;;;;;5086212;27;20040;-74
2022/05/15 14:27:46;;;;;;;12.80;4.05;;;;;;;;;;5086175;28;20088;-75
2022/05/15 14:30:12;;;;;;;14.25;4.00;;;;;;;;;;5087917;28;20047;-75
2022/05/15 14:32:39;;;;;;;7.07;3.55;;;;;;;;;;5098264;28;20047;-74
2022/05/15 14:35:06;;;;;;;16.67;4.88;;;;;;;;;;5100124;27;20421;-73
2022/05/15 14:37:32;;;;;;;7.28;4.00;;;;;;;;;;5096268;28;20039;-74
2022/05/15 14:39:58;;;;;;;9.18;3.35;;;;;;;;;;5097559;28;20575;-74
2022/05/15 14:42:27;;;;;;;8.27;4.07;;;;;;;;;;5091949;27;20459;-74
2022/05/15 14:44:57;;;;;;;14.48;4.43;;;;;;;;;;5088627;28;20055;-74
2022/05/15 14:47:25;;;;;;;8.27;4.35;;;;;;;;;;5093086;27;20338;-74
2022/05/15 14:49:54;;;;;;;9.18;4.65;;;;;;;;;;5093908;27;20071;-74
2022/05/15 14:52:24;;;;;;;8.00;4.05;;;;;;;;;;5092537;28;20047;-73
2022/05/15 14:54:50;;;;;;;8.40;4.00;;;;;;;;;;5086733;28;20059;-73
2022/05/15 14:57:19;;;;;;;13.45;4.63;;;;;;;;;;5099336;28;20039;-73
2022/05/15 14:59:46;;;;;;;9.70;4.28;;;;;;;;;;5092746;27;20048;-74
2022/05/15 15:02:12;;;;;;;18.90;5.15;;;;;;;;;;5084517;27;20379;-73
2022/05/15 15:04:38;;;;;;;13.13;4.57;;;;;;;;;;5086092;27;20042;-73